sensor_id;sensor_type;location;lat;lon;timestamp;P1;durP1;ratioP1;P2;durP2;ratioP2
5742;SDS011;2896;53.500;10.020;2023-04-21T00:00:49;27.93;;;14.20;;
5742;SDS011;2896;53.500;10.020;2023-04-21T00:03:15;22.40;;;14.37;;
5742;SDS011;2896;53.500;10.020;2023-04-21T00:05:46;22.70;;;13.37;;
5742;SDS011;2896;53.500;10.020;2023-04-21T00:08:13;25.00;;;13.97;;
5742;SDS011;2896;53.500;10.020;2023-04-21T00:10:40;21.00;;;12.80;;
5742;SDS011;2896;53.500;10.020;2023-04-21T00:13:07;24.20;;;13.60;;
5742;SDS011;2896;53.500;10.020;2023-04-21T00:15:34;21.77;;;12.57;;
5742;SDS011;2896;53.500;10.020;2023-04-21T00:18:01;20.40;;;13.50;;
5742;SDS011;2896;53.500;10.020;2023-04-21T00:20:28;17.60;;;12.43;;
5742;SDS011;2896;53.500;10.020;2023-04-21T00:22:57;23.37;;;13.70;;
5742;SDS011;2896;53.500;10.020;2023-04-21T00:25:24;21.97;;;12.17;;
5742;SDS011;2896;53.500;10.020;2023-04-21T00:27:51;21.77;;;12.90;;
5742;SDS011;2896;53.500;10.020;2023-04-21T00:30:18;25.43;;;14.03;;
5742;SDS011;2896;53.500;10.020;2023-04-21T00:32:44;23.50;;;12.67;;
5742;SDS011;2896;53.500;10.020;2023-04-21T00:35:11;20.80;;;13.20;;
5742;SDS011;2896;53.500;10.020;2023-04-21T00:37:38;21.97;;;11.97;;
5742;SDS011;2896;53.500;10.020;2023-04-21T00:40:07;24.90;;;12.93;;
5742;SDS011;2896;53.500;10.020;2023-04-21T00:42:35;20.43;;;13.00;;
5742;SDS011;2896;53.500;10.020;2023-04-21T00:45:01;24.03;;;12.30;;
5742;SDS011;2896;53.500;10.020;2023-04-21T00:47:28;17.17;;;12.63;;
5742;SDS011;2896;53.500;10.020;2023-04-21T00:49:55;23.90;;;12.30;;
5742;SDS011;2896;53.500;10.020;2023-04-21T00:52:22;18.20;;;12.10;;
5742;SDS011;2896;53.500;10.020;2023-04-21T00:54:50;34.10;;;13.87;;
5742;SDS011;2896;53.500;10.020;2023-04-21T00:57:18;23.90;;;12.63;;
5742;SDS011;2896;53.500;10.020;2023-04-21T00:59:46;22.80;;;12.97;;
5742;SDS011;2896;53.500;10.020;2023-04-21T01:02:13;30.73;;;12.73;;
5742;SDS011;2896;53.500;10.020;2023-04-21T01:04:41;34.50;;;12.40;;
5742;SDS011;2896;53.500;10.020;2023-04-21T01:07:09;21.57;;;12.40;;
5742;SDS011;2896;53.500;10.020;2023-04-21T01:09:36;21.50;;;13.63;;
5742;SDS011;2896;53.500;10.020;2023-04-21T01:12:03;25.83;;;12.80;;
5742;SDS011;2896;53.500;10.020;2023-04-21T01:14:32;22.47;;;12.20;;
5742;SDS011;2896;53.500;10.020;2023-04-21T01:16:59;27.40;;;13.47;;
5742;SDS011;2896;53.500;10.020;2023-04-21T01:19:29;25.70;;;12.10;;
5742;SDS011;2896;53.500;10.020;2023-04-21T01:21:59;16.93;;;11.63;;
5742;SDS011;2896;53.500;10.020;2023-04-21T01:24:34;22.87;;;12.07;;
5742;SDS011;2896;53.500;10.020;2023-04-21T01:27:01;28.10;;;13.20;;
5742;SDS011;2896;53.500;10.020;2023-04-21T01:29:30;20.90;;;12.67;;
5742;SDS011;2896;53.500;10.020;2023-04-21T01:31:58;21.60;;;12.53;;
5742;SDS011;2896;53.500;10.020;2023-04-21T01:34:28;23.47;;;11.87;;
5742;SDS011;2896;53.500;10.020;2023-04-21T01:36:55;23.13;;;12.33;;
5742;SDS011;2896;53.500;10.020;2023-04-21T01:39:23;23.30;;;13.60;;
5742;SDS011;2896;53.500;10.020;2023-04-21T01:41:50;25.50;;;12.60;;
5742;SDS011;2896;53.500;10.020;2023-04-21T01:44:17;24.93;;;12.70;;
5742;SDS011;2896;53.500;10.020;2023-04-21T01:46:43;23.67;;;12.93;;
5742;SDS011;2896;53.500;10.020;2023-04-21T01:49:10;26.83;;;13.30;;
5742;SDS011;2896;53.500;10.020;2023-04-21T01:51:37;26.27;;;11.90;;
5742;SDS011;2896;53.500;10.020;2023-04-21T01:54:04;23.80;;;11.93;;
5742;SDS011;2896;53.500;10.020;2023-04-21T01:56:32;23.10;;;14.03;;
5742;SDS011;2896;53.500;10.020;2023-04-21T01:58:58;19.77;;;12.30;;
5742;SDS011;2896;53.500;10.020;2023-04-21T02:01:25;26.27;;;12.80;;
5742;SDS011;2896;53.500;10.020;2023-04-21T02:03:52;24.37;;;12.10;;
5742;SDS011;2896;53.500;10.020;2023-04-21T02:06:18;24.53;;;12.87;;
5742;SDS011;2896;53.500;10.020;2023-04-21T02:08:45;20.13;;;10.93;;
5742;SDS011;2896;53.500;10.020;2023-04-21T02:11:12;23.10;;;12.20;;
5742;SDS011;2896;53.500;10.020;2023-04-21T02:13:40;16.33;;;11.43;;
5742;SDS011;2896;53.500;10.020;2023-04-21T02:16:06;24.77;;;10.60;;
5742;SDS011;2896;53.500;10.020;2023-04-21T02:18:33;22.77;;;11.77;;
5742;SDS011;2896;53.500;10.020;2023-04-21T02:21:04;16.57;;;11.10;;
5742;SDS011;2896;53.500;10.020;2023-04-21T02:23:31;15.30;;;11.70;;
5742;SDS011;2896;53.500;10.020;2023-04-21T02:25:58;24.80;;;11.70;;
5742;SDS011;2896;53.500;10.020;2023-04-21T02:28:24;24.07;;;11.77;;
5742;SDS011;2896;53.500;10.020;2023-04-21T02:30:52;20.53;;;12.80;;
5742;SDS011;2896;53.500;10.020;2023-04-21T02:33:19;18.00;;;11.00;;
5742;SDS011;2896;53.500;10.020;2023-04-21T02:35:45;28.20;;;12.03;;
5742;SDS011;2896;53.500;10.020;2023-04-21T02:38:12;20.47;;;12.07;;
5742;SDS011;2896;53.500;10.020;2023-04-21T02:40:38;25.67;;;11.43;;
5742;SDS011;2896;53.500;10.020;2023-04-21T02:43:06;17.80;;;11.90;;
5742;SDS011;2896;53.500;10.020;2023-04-21T02:45:33;18.73;;;12.10;;
5742;SDS011;2896;53.500;10.020;2023-04-21T02:48:03;30.17;;;13.50;;
5742;SDS011;2896;53.500;10.020;2023-04-21T02:50:30;25.00;;;12.53;;
5742;SDS011;2896;53.500;10.020;2023-04-21T02:52:56;15.43;;;10.97;;
5742;SDS011;2896;53.500;10.020;2023-04-21T02:55:23;23.97;;;12.03;;
5742;SDS011;2896;53.500;10.020;2023-04-21T02:57:50;16.40;;;12.03;;
5742;SDS011;2896;53.500;10.020;2023-04-21T03:00:17;25.17;;;11.83;;
5742;SDS011;2896;53.500;10.020;2023-04-21T03:02:44;23.20;;;13.73;;
5742;SDS011;2896;53.500;10.020;2023-04-21T03:05:12;25.60;;;11.90;;
5742;SDS011;2896;53.500;10.020;2023-04-21T03:07:40;24.50;;;12.30;;
5742;SDS011;2896;53.500;10.020;2023-04-21T03:10:06;31.80;;;12.93;;
5742;SDS011;2896;53.500;10.020;2023-04-21T03:12:33;22.00;;;12.43;;
5742;SDS011;2896;53.500;10.020;2023-04-21T03:15:00;23.63;;;11.93;;
5742;SDS011;2896;53.500;10.020;2023-04-21T03:17:27;24.30;;;11.37;;
5742;SDS011;2896;53.500;10.020;2023-04-21T03:19:53;20.60;;;12.57;;
5742;SDS011;2896;53.500;10.020;2023-04-21T03:22:21;21.90;;;12.33;;
5742;SDS011;2896;53.500;10.020;2023-04-21T03:24:48;20.77;;;11.43;;
5742;SDS011;2896;53.500;10.020;2023-04-21T03:27:15;19.13;;;11.87;;
5742;SDS011;2896;53.500;10.020;2023-04-21T03:29:41;16.70;;;11.03;;
5742;SDS011;2896;53.500;10.020;2023-04-21T03:32:08;16.63;;;11.90;;
5742;SDS011;2896;53.500;10.020;2023-04-21T03:34:35;18.47;;;11.40;;
5742;SDS011;2896;53.500;10.020;2023-04-21T03:37:01;24.30;;;12.87;;
5742;SDS011;2896;53.500;10.020;2023-04-21T03:39:29;19.27;;;12.10;;
5742;SDS011;2896;53.500;10.020;2023-04-21T03:41:58;21.87;;;11.77;;
5742;SDS011;2896;53.500;10.020;2023-04-21T03:44:25;28.93;;;12.50;;
5742;SDS011;2896;53.500;10.020;2023-04-21T03:46:52;17.03;;;11.67;;
5742;SDS011;2896;53.500;10.020;2023-04-21T03:49:19;23.80;;;12.57;;
5742;SDS011;2896;53.500;10.020;2023-04-21T03:51:46;26.43;;;12.27;;
5742;SDS011;2896;53.500;10.020;2023-04-21T03:54:12;19.60;;;11.00;;
5742;SDS011;2896;53.500;10.020;2023-04-21T03:56:40;22.77;;;11.90;;
5742;SDS011;2896;53.500;10.020;2023-04-21T03:59:07;21.83;;;11.97;;
5742;SDS011;2896;53.500;10.020;2023-04-21T04:01:34;20.87;;;12.33;;
5742;SDS011;2896;53.500;10.020;2023-04-21T04:04:00;25.17;;;11.83;;
5742;SDS011;2896;53.500;10.020;2023-04-21T04:06:27;21.00;;;11.80;;
5742;SDS011;2896;53.500;10.020;2023-04-21T04:08:53;19.53;;;12.67;;
5742;SDS011;2896;53.500;10.020;2023-04-21T04:11:20;27.80;;;13.83;;
5742;SDS011;2896;53.500;10.020;2023-04-21T04:13:48;19.67;;;13.30;;
5742;SDS011;2896;53.500;10.020;2023-04-21T04:16:15;20.30;;;13.60;;
5742;SDS011;2896;53.500;10.020;2023-04-21T04:18:42;20.80;;;11.90;;
5742;SDS011;2896;53.500;10.020;2023-04-21T04:21:09;20.07;;;12.20;;
5742;SDS011;2896;53.500;10.020;2023-04-21T04:23:36;24.30;;;12.90;;
5742;SDS011;2896;53.500;10.020;2023-04-21T04:26:03;23.80;;;12.43;;
5742;SDS011;2896;53.500;10.020;2023-04-21T04:28:29;21.23;;;11.70;;
5742;SDS011;2896;53.500;10.020;2023-04-21T04:30:57;28.23;;;12.43;;
5742;SDS011;2896;53.500;10.020;2023-04-21T04:33:25;18.20;;;12.27;;
5742;SDS011;2896;53.500;10.020;2023-04-21T04:35:51;22.73;;;12.80;;
5742;SDS011;2896;53.500;10.020;2023-04-21T04:38:18;27.50;;;11.73;;
5742;SDS011;2896;53.500;10.020;2023-04-21T04:40:51;27.70;;;12.13;;
5742;SDS011;2896;53.500;10.020;2023-04-21T04:43:18;19.97;;;12.20;;
5742;SDS011;2896;53.500;10.020;2023-04-21T04:45:45;20.47;;;12.70;;
5742;SDS011;2896;53.500;10.020;2023-04-21T04:48:13;24.60;;;12.77;;
5742;SDS011;2896;53.500;10.020;2023-04-21T04:50:40;20.13;;;11.90;;
5742;SDS011;2896;53.500;10.020;2023-04-21T04:53:07;18.03;;;11.90;;
5742;SDS011;2896;53.500;10.020;2023-04-21T04:55:33;23.10;;;12.90;;
5742;SDS011;2896;53.500;10.020;2023-04-21T04:58:00;25.60;;;12.50;;
5742;SDS011;2896;53.500;10.020;2023-04-21T05:00:27;17.63;;;11.57;;
5742;SDS011;2896;53.500;10.020;2023-04-21T05:02:54;16.27;;;11.23;;
5742;SDS011;2896;53.500;10.020;2023-04-21T05:05:22;14.67;;;11.20;;
5742;SDS011;2896;53.500;10.020;2023-04-21T05:07:49;25.00;;;12.93;;
5742;SDS011;2896;53.500;10.020;2023-04-21T05:10:16;25.23;;;12.80;;
5742;SDS011;2896;53.500;10.020;2023-04-21T05:12:43;18.77;;;11.50;;
5742;SDS011;2896;53.500;10.020;2023-04-21T05:15:09;16.90;;;11.30;;
5742;SDS011;2896;53.500;10.020;2023-04-21T05:17:36;22.87;;;12.07;;
5742;SDS011;2896;53.500;10.020;2023-04-21T05:20:03;15.10;;;10.83;;
5742;SDS011;2896;53.500;10.020;2023-04-21T05:22:31;25.10;;;11.93;;
5742;SDS011;2896;53.500;10.020;2023-04-21T05:25:02;21.63;;;12.30;;
5742;SDS011;2896;53.500;10.020;2023-04-21T05:27:29;20.03;;;11.87;;
5742;SDS011;2896;53.500;10.020;2023-04-21T05:29:56;20.00;;;11.10;;
5742;SDS011;2896;53.500;10.020;2023-04-21T05:32:22;21.40;;;11.90;;
5742;SDS011;2896;53.500;10.020;2023-04-21T05:34:49;22.83;;;11.90;;
5742;SDS011;2896;53.500;10.020;2023-04-21T05:37:16;16.50;;;11.40;;
5742;SDS011;2896;53.500;10.020;2023-04-21T05:39:44;25.83;;;11.83;;
5742;SDS011;2896;53.500;10.020;2023-04-21T05:42:10;22.90;;;12.10;;
5742;SDS011;2896;53.500;10.020;2023-04-21T05:44:37;20.50;;;12.27;;
5742;SDS011;2896;53.500;10.020;2023-04-21T05:47:04;18.90;;;11.30;;
5742;SDS011;2896;53.500;10.020;2023-04-21T05:49:31;19.93;;;12.13;;
5742;SDS011;2896;53.500;10.020;2023-04-21T05:51:58;23.83;;;11.30;;
5742;SDS011;2896;53.500;10.020;2023-04-21T05:54:25;17.90;;;12.37;;
5742;SDS011;2896;53.500;10.020;2023-04-21T05:56:53;20.63;;;11.03;;
5742;SDS011;2896;53.500;10.020;2023-04-21T05:59:19;17.53;;;10.90;;
5742;SDS011;2896;53.500;10.020;2023-04-21T06:01:46;17.90;;;11.73;;
5742;SDS011;2896;53.500;10.020;2023-04-21T06:04:12;19.50;;;10.43;;
5742;SDS011;2896;53.500;10.020;2023-04-21T06:06:39;18.60;;;11.97;;
5742;SDS011;2896;53.500;10.020;2023-04-21T06:09:06;15.13;;;10.50;;
5742;SDS011;2896;53.500;10.020;2023-04-21T06:11:33;19.50;;;11.10;;
5742;SDS011;2896;53.500;10.020;2023-04-21T06:14:01;16.10;;;10.40;;
5742;SDS011;2896;53.500;10.020;2023-04-21T06:16:27;20.37;;;11.03;;
5742;SDS011;2896;53.500;10.020;2023-04-21T06:18:57;17.80;;;10.23;;
5742;SDS011;2896;53.500;10.020;2023-04-21T06:21:24;16.10;;;10.63;;
5742;SDS011;2896;53.500;10.020;2023-04-21T06:23:51;17.77;;;10.90;;
5742;SDS011;2896;53.500;10.020;2023-04-21T06:26:17;19.63;;;11.40;;
5742;SDS011;2896;53.500;10.020;2023-04-21T06:28:44;18.20;;;10.17;;
5742;SDS011;2896;53.500;10.020;2023-04-21T06:31:12;12.63;;;10.23;;
5742;SDS011;2896;53.500;10.020;2023-04-21T06:33:40;25.13;;;10.53;;
5742;SDS011;2896;53.500;10.020;2023-04-21T06:36:07;16.70;;;9.93;;
5742;SDS011;2896;53.500;10.020;2023-04-21T06:38:33;22.93;;;10.53;;
5742;SDS011;2896;53.500;10.020;2023-04-21T06:41:00;13.57;;;9.97;;
5742;SDS011;2896;53.500;10.020;2023-04-21T06:43:28;17.30;;;10.33;;
5742;SDS011;2896;53.500;10.020;2023-04-21T06:45:55;17.60;;;9.90;;
5742;SDS011;2896;53.500;10.020;2023-04-21T06:48:23;19.33;;;10.47;;
5742;SDS011;2896;53.500;10.020;2023-04-21T06:50:50;20.00;;;10.00;;
5742;SDS011;2896;53.500;10.020;2023-04-21T06:53:17;19.27;;;11.53;;
5742;SDS011;2896;53.500;10.020;2023-04-21T06:55:45;15.13;;;9.43;;
5742;SDS011;2896;53.500;10.020;2023-04-21T06:58:12;14.30;;;10.30;;
5742;SDS011;2896;53.500;10.020;2023-04-21T07:00:39;32.00;;;10.53;;
5742;SDS011;2896;53.500;10.020;2023-04-21T07:03:06;14.70;;;10.23;;
5742;SDS011;2896;53.500;10.020;2023-04-21T07:05:34;17.70;;;8.90;;
5742;SDS011;2896;53.500;10.020;2023-04-21T07:08:00;16.23;;;10.40;;
5742;SDS011;2896;53.500;10.020;2023-04-21T07:10:27;13.10;;;9.63;;
5742;SDS011;2896;53.500;10.020;2023-04-21T07:12:54;19.50;;;10.97;;
5742;SDS011;2896;53.500;10.020;2023-04-21T07:15:20;18.20;;;10.30;;
5742;SDS011;2896;53.500;10.020;2023-04-21T07:17:47;23.80;;;10.00;;
5742;SDS011;2896;53.500;10.020;2023-04-21T07:20:14;13.30;;;9.90;;
5742;SDS011;2896;53.500;10.020;2023-04-21T07:22:42;33.03;;;11.50;;
5742;SDS011;2896;53.500;10.020;2023-04-21T07:25:10;13.33;;;10.37;;
5742;SDS011;2896;53.500;10.020;2023-04-21T07:27:37;20.00;;;10.53;;
5742;SDS011;2896;53.500;10.020;2023-04-21T07:30:04;12.10;;;10.80;;
5742;SDS011;2896;53.500;10.020;2023-04-21T07:32:31;19.27;;;10.67;;
5742;SDS011;2896;53.500;10.020;2023-04-21T07:34:58;26.60;;;10.00;;
5742;SDS011;2896;53.500;10.020;2023-04-21T07:37:26;14.50;;;9.40;;
5742;SDS011;2896;53.500;10.020;2023-04-21T07:39:54;10.47;;;9.37;;
5742;SDS011;2896;53.500;10.020;2023-04-21T07:42:21;15.67;;;9.90;;
5742;SDS011;2896;53.500;10.020;2023-04-21T07:44:48;15.70;;;10.47;;
5742;SDS011;2896;53.500;10.020;2023-04-21T07:47:15;14.23;;;10.53;;
5742;SDS011;2896;53.500;10.020;2023-04-21T07:49:41;12.47;;;9.03;;
5742;SDS011;2896;53.500;10.020;2023-04-21T07:52:08;15.60;;;9.10;;
5742;SDS011;2896;53.500;10.020;2023-04-21T07:54:34;12.93;;;8.97;;
5742;SDS011;2896;53.500;10.020;2023-04-21T07:57:02;13.80;;;8.57;;
5742;SDS011;2896;53.500;10.020;2023-04-21T07:59:31;12.20;;;9.50;;
5742;SDS011;2896;53.500;10.020;2023-04-21T08:01:57;12.63;;;9.33;;
5742;SDS011;2896;53.500;10.020;2023-04-21T08:04:24;14.70;;;9.30;;
5742;SDS011;2896;53.500;10.020;2023-04-21T08:06:51;16.20;;;9.77;;
5742;SDS011;2896;53.500;10.020;2023-04-21T08:09:17;18.77;;;10.17;;
5742;SDS011;2896;53.500;10.020;2023-04-21T08:11:44;13.93;;;9.50;;
5742;SDS011;2896;53.500;10.020;2023-04-21T08:14:12;15.77;;;9.00;;
5742;SDS011;2896;53.500;10.020;2023-04-21T08:16:39;9.70;;;8.23;;
5742;SDS011;2896;53.500;10.020;2023-04-21T08:19:06;14.73;;;9.27;;
5742;SDS011;2896;53.500;10.020;2023-04-21T08:21:33;10.93;;;9.03;;
5742;SDS011;2896;53.500;10.020;2023-04-21T08:24:00;11.90;;;8.00;;
5742;SDS011;2896;53.500;10.020;2023-04-21T08:26:27;15.40;;;8.67;;
5742;SDS011;2896;53.500;10.020;2023-04-21T08:28:54;17.23;;;9.80;;
5742;SDS011;2896;53.500;10.020;2023-04-21T08:31:22;11.70;;;8.57;;
5742;SDS011;2896;53.500;10.020;2023-04-21T08:33:48;13.47;;;9.67;;
5742;SDS011;2896;53.500;10.020;2023-04-21T08:36:15;14.20;;;9.13;;
5742;SDS011;2896;53.500;10.020;2023-04-21T08:38:42;20.77;;;9.00;;
5742;SDS011;2896;53.500;10.020;2023-04-21T08:41:09;14.37;;;8.47;;
5742;SDS011;2896;53.500;10.020;2023-04-21T08:43:36;12.60;;;9.63;;
5742;SDS011;2896;53.500;10.020;2023-04-21T08:46:04;15.07;;;8.77;;
5742;SDS011;2896;53.500;10.020;2023-04-21T08:48:34;16.97;;;9.20;;
5742;SDS011;2896;53.500;10.020;2023-04-21T08:51:01;13.80;;;9.43;;
5742;SDS011;2896;53.500;10.020;2023-04-21T08:53:28;10.23;;;8.17;;
5742;SDS011;2896;53.500;10.020;2023-04-21T08:55:55;20.77;;;9.87;;
5742;SDS011;2896;53.500;10.020;2023-04-21T08:58:21;15.63;;;8.53;;
5742;SDS011;2896;53.500;10.020;2023-04-21T09:00:48;16.33;;;9.17;;
5742;SDS011;2896;53.500;10.020;2023-04-21T09:03:20;18.27;;;9.97;;
5742;SDS011;2896;53.500;10.020;2023-04-21T09:05:56;18.63;;;9.20;;
5742;SDS011;2896;53.500;10.020;2023-04-21T09:08:24;15.43;;;8.20;;
5742;SDS011;2896;53.500;10.020;2023-04-21T09:10:52;13.17;;;9.47;;
5742;SDS011;2896;53.500;10.020;2023-04-21T09:13:18;11.07;;;8.97;;
5742;SDS011;2896;53.500;10.020;2023-04-21T09:15:48;12.87;;;9.80;;
5742;SDS011;2896;53.500;10.020;2023-04-21T09:18:16;19.17;;;8.30;;
5742;SDS011;2896;53.500;10.020;2023-04-21T09:20:44;10.80;;;8.97;;
5742;SDS011;2896;53.500;10.020;2023-04-21T09:23:13;16.33;;;9.03;;
5742;SDS011;2896;53.500;10.020;2023-04-21T09:25:41;19.37;;;9.77;;
5742;SDS011;2896;53.500;10.020;2023-04-21T09:28:08;10.83;;;9.13;;
5742;SDS011;2896;53.500;10.020;2023-04-21T09:30:36;11.50;;;8.23;;
5742;SDS011;2896;53.500;10.020;2023-04-21T09:33:03;31.10;;;9.43;;
5742;SDS011;2896;53.500;10.020;2023-04-21T09:35:31;10.23;;;9.17;;
5742;SDS011;2896;53.500;10.020;2023-04-21T09:37:59;10.77;;;7.87;;
5742;SDS011;2896;53.500;10.020;2023-04-21T09:40:28;13.80;;;9.50;;
5742;SDS011;2896;53.500;10.020;2023-04-21T09:42:56;20.67;;;9.37;;
5742;SDS011;2896;53.500;10.020;2023-04-21T09:45:22;13.90;;;9.17;;
5742;SDS011;2896;53.500;10.020;2023-04-21T09:47:54;12.90;;;8.47;;
5742;SDS011;2896;53.500;10.020;2023-04-21T09:50:22;13.90;;;8.40;;
5742;SDS011;2896;53.500;10.020;2023-04-21T09:52:50;11.57;;;8.00;;
5742;SDS011;2896;53.500;10.020;2023-04-21T09:55:21;13.60;;;8.37;;
5742;SDS011;2896;53.500;10.020;2023-04-21T09:57:53;13.20;;;8.20;;
5742;SDS011;2896;53.500;10.020;2023-04-21T10:00:23;9.03;;;8.10;;
5742;SDS011;2896;53.500;10.020;2023-04-21T10:02:52;12.77;;;8.10;;
5742;SDS011;2896;53.500;10.020;2023-04-21T10:05:20;15.83;;;9.33;;
5742;SDS011;2896;53.500;10.020;2023-04-21T10:07:48;13.77;;;9.10;;
5742;SDS011;2896;53.500;10.020;2023-04-21T10:10:15;17.57;;;9.27;;
5742;SDS011;2896;53.500;10.020;2023-04-21T10:12:46;11.77;;;7.83;;
5742;SDS011;2896;53.500;10.020;2023-04-21T10:15:29;10.70;;;8.20;;
5742;SDS011;2896;53.500;10.020;2023-04-21T10:18:15;15.80;;;8.10;;
5742;SDS011;2896;53.500;10.020;2023-04-21T10:20:50;10.90;;;7.77;;
5742;SDS011;2896;53.500;10.020;2023-04-21T10:23:30;10.43;;;8.53;;
5742;SDS011;2896;53.500;10.020;2023-04-21T10:26:05;14.57;;;8.70;;
5742;SDS011;2896;53.500;10.020;2023-04-21T10:28:44;8.43;;;6.83;;
5742;SDS011;2896;53.500;10.020;2023-04-21T10:31:19;9.90;;;7.23;;
5742;SDS011;2896;53.500;10.020;2023-04-21T10:36:42;16.13;;;8.50;;
5742;SDS011;2896;53.500;10.020;2023-04-21T10:39:33;8.43;;;7.50;;
5742;SDS011;2896;53.500;10.020;2023-04-21T10:44:50;12.43;;;8.77;;
5742;SDS011;2896;53.500;10.020;2023-04-21T10:47:24;17.27;;;7.67;;
5742;SDS011;2896;53.500;10.020;2023-04-21T10:49:52;10.40;;;7.93;;
5742;SDS011;2896;53.500;10.020;2023-04-21T10:52:20;13.40;;;7.73;;
5742;SDS011;2896;53.500;10.020;2023-04-21T10:57:34;15.83;;;7.80;;
5742;SDS011;2896;53.500;10.020;2023-04-21T11:00:02;15.07;;;7.77;;
5742;SDS011;2896;53.500;10.020;2023-04-21T11:02:32;8.47;;;7.10;;
5742;SDS011;2896;53.500;10.020;2023-04-21T11:05:00;10.07;;;7.97;;
5742;SDS011;2896;53.500;10.020;2023-04-21T11:07:27;10.70;;;8.00;;
5742;SDS011;2896;53.500;10.020;2023-04-21T11:09:55;14.87;;;8.40;;
5742;SDS011;2896;53.500;10.020;2023-04-21T11:12:25;14.20;;;8.40;;
5742;SDS011;2896;53.500;10.020;2023-04-21T11:14:53;8.33;;;7.23;;
5742;SDS011;2896;53.500;10.020;2023-04-21T11:17:20;15.03;;;7.90;;
5742;SDS011;2896;53.500;10.020;2023-04-21T11:19:49;17.67;;;7.50;;
5742;SDS011;2896;53.500;10.020;2023-04-21T11:22:17;13.00;;;8.00;;
5742;SDS011;2896;53.500;10.020;2023-04-21T11:24:46;14.00;;;8.33;;
5742;SDS011;2896;53.500;10.020;2023-04-21T11:27:14;8.10;;;6.83;;
5742;SDS011;2896;53.500;10.020;2023-04-21T11:29:43;15.73;;;8.20;;
5742;SDS011;2896;53.500;10.020;2023-04-21T11:32:10;12.83;;;8.13;;
5742;SDS011;2896;53.500;10.020;2023-04-21T11:34:37;8.40;;;7.30;;
5742;SDS011;2896;53.500;10.020;2023-04-21T11:37:07;9.00;;;8.10;;
5742;SDS011;2896;53.500;10.020;2023-04-21T11:39:34;14.57;;;8.30;;
5742;SDS011;2896;53.500;10.020;2023-04-21T11:42:04;8.33;;;7.33;;
5742;SDS011;2896;53.500;10.020;2023-04-21T11:44:32;11.00;;;8.10;;
5742;SDS011;2896;53.500;10.020;2023-04-21T11:47:10;8.03;;;7.30;;
5742;SDS011;2896;53.500;10.020;2023-04-21T11:49:42;10.10;;;7.07;;
5742;SDS011;2896;53.500;10.020;2023-04-21T11:52:11;8.50;;;7.10;;
5742;SDS011;2896;53.500;10.020;2023-04-21T11:54:45;15.53;;;8.03;;
5742;SDS011;2896;53.500;10.020;2023-04-21T11:57:12;16.13;;;8.50;;
5742;SDS011;2896;53.500;10.020;2023-04-21T11:59:43;10.23;;;7.70;;
5742;SDS011;2896;53.500;10.020;2023-04-21T12:02:12;8.60;;;7.20;;
5742;SDS011;2896;53.500;10.020;2023-04-21T12:04:55;8.13;;;7.30;;
5742;SDS011;2896;53.500;10.020;2023-04-21T12:07:24;10.40;;;8.10;;
5742;SDS011;2896;53.500;10.020;2023-04-21T12:09:51;9.97;;;7.13;;
5742;SDS011;2896;53.500;10.020;2023-04-21T12:12:17;8.17;;;7.37;;
5742;SDS011;2896;53.500;10.020;2023-04-21T12:14:44;12.20;;;7.43;;
5742;SDS011;2896;53.500;10.020;2023-04-21T12:17:10;14.23;;;8.03;;
5742;SDS011;2896;53.500;10.020;2023-04-21T12:19:38;9.70;;;7.93;;
5742;SDS011;2896;53.500;10.020;2023-04-21T12:22:06;13.00;;;7.00;;
5742;SDS011;2896;53.500;10.020;2023-04-21T12:24:35;8.33;;;7.50;;
5742;SDS011;2896;53.500;10.020;2023-04-21T12:27:03;10.70;;;7.37;;
5742;SDS011;2896;53.500;10.020;2023-04-21T12:29:30;10.10;;;7.50;;
5742;SDS011;2896;53.500;10.020;2023-04-21T12:31:59;14.10;;;8.00;;
5742;SDS011;2896;53.500;10.020;2023-04-21T12:34:25;12.13;;;7.93;;
5742;SDS011;2896;53.500;10.020;2023-04-21T12:36:52;7.83;;;7.00;;
5742;SDS011;2896;53.500;10.020;2023-04-21T12:39:19;18.70;;;7.47;;
5742;SDS011;2896;53.500;10.020;2023-04-21T12:41:47;21.10;;;7.47;;
5742;SDS011;2896;53.500;10.020;2023-04-21T12:44:14;8.70;;;7.80;;
5742;SDS011;2896;53.500;10.020;2023-04-21T12:46:40;10.97;;;8.50;;
5742;SDS011;2896;53.500;10.020;2023-04-21T12:49:07;15.50;;;8.00;;
5742;SDS011;2896;53.500;10.020;2023-04-21T12:51:35;14.37;;;7.60;;
5742;SDS011;2896;53.500;10.020;2023-04-21T12:54:01;8.40;;;7.70;;
5742;SDS011;2896;53.500;10.020;2023-04-21T12:56:28;8.47;;;7.60;;
5742;SDS011;2896;53.500;10.020;2023-04-21T12:58:56;14.80;;;6.87;;
5742;SDS011;2896;53.500;10.020;2023-04-21T13:01:23;12.23;;;6.80;;
5742;SDS011;2896;53.500;10.020;2023-04-21T13:03:50;11.50;;;7.60;;
5742;SDS011;2896;53.500;10.020;2023-04-21T13:06:16;15.83;;;8.13;;
5742;SDS011;2896;53.500;10.020;2023-04-21T13:08:43;12.53;;;8.10;;
5742;SDS011;2896;53.500;10.020;2023-04-21T13:11:10;8.70;;;6.93;;
5742;SDS011;2896;53.500;10.020;2023-04-21T13:13:37;9.40;;;7.17;;
5742;SDS011;2896;53.500;10.020;2023-04-21T13:16:06;16.67;;;6.73;;
5742;SDS011;2896;53.500;10.020;2023-04-21T13:18:32;9.00;;;7.13;;
5742;SDS011;2896;53.500;10.020;2023-04-21T13:21:00;18.33;;;7.40;;
5742;SDS011;2896;53.500;10.020;2023-04-21T13:23:26;10.27;;;6.67;;
5742;SDS011;2896;53.500;10.020;2023-04-21T13:25:54;9.90;;;7.63;;
5742;SDS011;2896;53.500;10.020;2023-04-21T13:28:20;9.43;;;7.23;;
5742;SDS011;2896;53.500;10.020;2023-04-21T13:30:48;10.20;;;7.40;;
5742;SDS011;2896;53.500;10.020;2023-04-21T13:33:17;9.70;;;7.50;;
5742;SDS011;2896;53.500;10.020;2023-04-21T13:35:44;13.67;;;6.73;;
5742;SDS011;2896;53.500;10.020;2023-04-21T13:38:11;18.13;;;7.10;;
5742;SDS011;2896;53.500;10.020;2023-04-21T13:40:37;8.87;;;7.57;;
5742;SDS011;2896;53.500;10.020;2023-04-21T13:43:04;11.07;;;6.33;;
5742;SDS011;2896;53.500;10.020;2023-04-21T13:45:31;8.10;;;7.40;;
5742;SDS011;2896;53.500;10.020;2023-04-21T13:47:57;14.93;;;7.90;;
5742;SDS011;2896;53.500;10.020;2023-04-21T13:50:25;11.43;;;7.00;;
5742;SDS011;2896;53.500;10.020;2023-04-21T13:52:52;9.63;;;7.00;;
5742;SDS011;2896;53.500;10.020;2023-04-21T13:55:19;7.37;;;6.67;;
5742;SDS011;2896;53.500;10.020;2023-04-21T13:57:45;14.63;;;7.37;;
5742;SDS011;2896;53.500;10.020;2023-04-21T14:00:12;12.97;;;7.17;;
5742;SDS011;2896;53.500;10.020;2023-04-21T14:02:39;8.13;;;7.33;;
5742;SDS011;2896;53.500;10.020;2023-04-21T14:05:06;11.00;;;7.50;;
5742;SDS011;2896;53.500;10.020;2023-04-21T14:07:35;16.20;;;7.40;;
5742;SDS011;2896;53.500;10.020;2023-04-21T14:10:02;8.60;;;7.10;;
5742;SDS011;2896;53.500;10.020;2023-04-21T14:12:29;8.00;;;7.20;;
5742;SDS011;2896;53.500;10.020;2023-04-21T14:14:56;7.50;;;6.80;;
5742;SDS011;2896;53.500;10.020;2023-04-21T14:17:22;15.53;;;6.83;;
5742;SDS011;2896;53.500;10.020;2023-04-21T14:19:49;12.63;;;7.00;;
5742;SDS011;2896;53.500;10.020;2023-04-21T14:22:16;13.43;;;7.40;;
5742;SDS011;2896;53.500;10.020;2023-04-21T14:24:45;21.20;;;6.97;;
5742;SDS011;2896;53.500;10.020;2023-04-21T14:27:11;10.90;;;7.50;;
5742;SDS011;2896;53.500;10.020;2023-04-21T14:29:38;8.90;;;7.70;;
5742;SDS011;2896;53.500;10.020;2023-04-21T14:32:05;8.50;;;6.43;;
5742;SDS011;2896;53.500;10.020;2023-04-21T14:34:31;7.83;;;6.93;;
5742;SDS011;2896;53.500;10.020;2023-04-21T14:36:58;10.13;;;7.30;;
5742;SDS011;2896;53.500;10.020;2023-04-21T14:39:25;10.27;;;7.70;;
5742;SDS011;2896;53.500;10.020;2023-04-21T14:41:53;12.13;;;7.03;;
5742;SDS011;2896;53.500;10.020;2023-04-21T14:44:19;15.00;;;7.97;;
5742;SDS011;2896;53.500;10.020;2023-04-21T14:46:46;11.07;;;7.33;;
5742;SDS011;2896;53.500;10.020;2023-04-21T14:49:13;8.63;;;7.77;;
5742;SDS011;2896;53.500;10.020;2023-04-21T14:51:40;10.40;;;7.30;;
5742;SDS011;2896;53.500;10.020;2023-04-21T14:54:07;11.17;;;7.37;;